Salt Lake City, Utah
Traffic Map
Current Weather Conditions
Salt Lake City, Utah
Scattered Clouds
Scattered Clouds
15°
Feels Like: 15°
Wind Chill: 15° Ceiling: Unl
Heat Index: 15° Visibility: 10mi
Dew Point: -3° Wind: 18mph
Humidity: 29% Direction: 190° (S)
Pressure: 30.08in Gusts: 0mph
Raw Report DataKSLC 310653Z 19016KT 10SM SCT250 15/M03 A3008 RMK AO2 SLP149 T01501028 402060033
Traffic Incident Summary
Active as of:
Severity:
Category:
InformationThere was an issue retrieving the traffic information for this location. Please try a different location or try again shortly.
Advertisements
Track Severe Weather on mobile